createdAt,value
2022-10-06T00:01:57.187Z,99326.75
2022-10-06T00:05:01.328Z,99328.72
2022-10-06T00:08:03.943Z,99336.28
2022-10-06T00:11:07.545Z,99334.06
2022-10-06T00:14:10.227Z,99326.41
2022-10-06T00:17:12.873Z,99327.91
2022-10-06T00:20:18.099Z,99339.03
2022-10-06T00:23:21.062Z,99338.38
2022-10-06T00:26:24.268Z,99349.25
2022-10-06T00:29:27.229Z,99341.78
2022-10-06T00:32:29.937Z,99354.69
2022-10-06T00:35:35.559Z,99350.78
2022-10-06T00:38:38.202Z,99358.72
2022-10-06T00:41:41.005Z,99357.31
2022-10-06T00:44:43.619Z,99367.72
2022-10-06T00:47:46.323Z,99364.38
2022-10-06T00:50:50.973Z,99374.09
2022-10-06T00:53:54.019Z,99368.22
2022-10-06T00:56:56.943Z,99378.94
2022-10-06T00:59:59.729Z,99372.81
2022-10-06T01:03:05.738Z,99376.50
2022-10-06T01:06:09.891Z,99377.56
2022-10-06T01:09:13.598Z,99375.47
2022-10-06T01:12:16.761Z,99380.66
2022-10-06T01:15:20.010Z,99387.78
2022-10-06T01:18:23.836Z,99385.50
2022-10-06T01:21:31.520Z,99388.25
2022-10-06T01:24:35.620Z,99390.16
2022-10-06T01:27:40.006Z,99390.28
2022-10-06T01:30:46.048Z,99398.31
2022-10-06T01:33:52.356Z,99397.50
2022-10-06T01:36:55.392Z,99402.47
2022-10-06T01:39:59.480Z,99404.75
2022-10-06T01:43:02.354Z,99413.09
2022-10-06T01:46:05.311Z,99417.72
2022-10-06T01:49:08.171Z,99405.44
2022-10-06T01:52:10.948Z,99417.53
2022-10-06T01:55:15.879Z,99426.09
2022-10-06T01:58:18.653Z,99432.34
2022-10-06T02:01:21.360Z,99441.94
2022-10-06T02:04:24.197Z,99429.38
2022-10-06T02:07:27.047Z,99428.41
2022-10-06T02:10:31.177Z,99429.59
2022-10-06T02:13:33.850Z,99418.66
2022-10-06T02:16:36.489Z,99430.69
2022-10-06T02:19:39.183Z,99425.72
2022-10-06T02:22:43.834Z,99435.69
2022-10-06T02:25:47.867Z,99444.19
2022-10-06T02:28:51.106Z,99447.69
2022-10-06T02:31:54.875Z,99458.75
2022-10-06T02:34:57.406Z,99448.31
2022-10-06T02:38:00.022Z,99461.88
2022-10-06T02:41:04.081Z,99465.28
2022-10-06T02:44:06.843Z,99471.78
2022-10-06T02:47:12.602Z,99478.34
2022-10-06T02:50:15.306Z,99480.91
2022-10-06T02:53:18.785Z,99486.47
2022-10-06T02:56:24.452Z,99492.97
2022-10-06T02:59:27.485Z,99491.16
2022-10-06T03:02:31.261Z,99492.06
2022-10-06T03:05:34.167Z,99489.25
2022-10-06T03:08:36.856Z,99493.59
2022-10-06T03:11:42.547Z,99512.00
2022-10-06T03:14:45.269Z,99525.94
2022-10-06T03:17:49.788Z,99516.25
2022-10-06T03:20:54.028Z,99524.88
2022-10-06T03:23:57.522Z,99540.50
2022-10-06T03:27:01.619Z,99543.06
2022-10-06T03:30:04.940Z,99553.19
2022-10-06T03:33:07.637Z,99556.25
2022-10-06T03:36:13.157Z,99561.41
2022-10-06T03:39:15.900Z,99556.88
2022-10-06T03:42:20.020Z,99564.44
2022-10-06T03:45:22.811Z,99573.75
2022-10-06T03:48:25.831Z,99575.09
2022-10-06T03:51:31.356Z,99583.88
2022-10-06T03:54:34.063Z,99586.88
2022-10-06T03:57:38.225Z,99592.53
2022-10-06T04:00:41.317Z,99605.47
2022-10-06T04:03:44.473Z,99621.56
2022-10-06T04:06:48.068Z,99610.34
2022-10-06T04:09:50.618Z,99623.03
2022-10-06T04:12:54.892Z,99618.25
2022-10-06T04:15:57.565Z,99615.25
2022-10-06T04:19:01.528Z,99617.63
2022-10-06T04:22:04.731Z,99622.81
2022-10-06T04:25:08.691Z,99629.59
2022-10-06T04:28:12.783Z,99631.72
2022-10-06T04:31:17.477Z,99626.88
2022-10-06T04:34:21.527Z,99642.81
2022-10-06T04:37:24.296Z,99639.19
2022-10-06T04:40:27.078Z,99639.88
2022-10-06T04:43:31.185Z,99638.50
2022-10-06T04:46:43.098Z,99638.66
2022-10-06T04:49:46.768Z,99636.16
2022-10-06T04:52:49.518Z,99640.78
2022-10-06T04:56:02.590Z,99654.16
2022-10-06T04:59:06.653Z,99646.94
2022-10-06T05:02:09.484Z,99659.59
2022-10-06T05:05:12.261Z,99659.75
2022-10-06T05:08:14.949Z,99668.50
2022-10-06T05:11:19.474Z,99669.31
2022-10-06T05:14:25.814Z,99671.91
2022-10-06T05:17:28.926Z,99682.28
2022-10-06T05:20:31.772Z,99676.34
2022-10-06T05:23:36.151Z,99681.19
2022-10-06T05:26:38.990Z,99693.19
2022-10-06T05:29:43.402Z,99689.16
2022-10-06T05:32:47.119Z,99694.66
2022-10-06T05:35:53.489Z,99695.47
2022-10-06T05:38:56.303Z,99705.19
2022-10-06T05:41:59.241Z,99712.66
2022-10-06T05:45:03.486Z,99706.03
2022-10-06T05:48:06.211Z,99723.00
2022-10-06T05:51:11.117Z,99719.75
2022-10-06T05:54:14.434Z,99722.03
2022-10-06T05:57:17.208Z,99712.31
2022-10-06T06:00:21.477Z,99730.28
2022-10-06T06:03:24.340Z,99731.91
2022-10-06T06:06:29.192Z,99737.09
2022-10-06T06:09:31.978Z,99737.91
2022-10-06T06:12:34.672Z,99758.13
2022-10-06T06:15:56.450Z,99764.97
2022-10-06T06:18:59.837Z,99761.56
2022-10-06T06:22:02.541Z,99770.59
2022-10-06T06:25:05.550Z,99773.06
2022-10-06T06:28:08.966Z,99768.69
2022-10-06T06:31:19.075Z,99775.81
2022-10-06T06:34:22.947Z,99783.47
2022-10-06T06:37:25.655Z,99789.59
2022-10-06T06:40:28.432Z,99793.47
2022-10-06T06:43:31.559Z,99793.09
2022-10-06T06:49:43.798Z,99803.56
2022-10-06T06:52:47.031Z,99808.38
2022-10-06T06:55:51.262Z,99819.31
2022-10-06T06:58:54.421Z,99822.41
2022-10-06T07:01:58.854Z,99831.44
2022-10-06T07:05:01.663Z,99833.50
2022-10-06T07:08:04.515Z,99837.59
2022-10-06T07:11:15.446Z,99845.09
2022-10-06T07:14:18.334Z,99850.13
2022-10-06T07:17:40.087Z,99845.31
2022-10-06T07:21:02.761Z,99852.34
2022-10-06T07:24:34.587Z,99854.59
2022-10-06T07:27:39.794Z,99864.38
2022-10-06T07:30:42.543Z,99867.19
2022-10-06T07:33:46.476Z,99877.63
2022-10-06T07:36:54.074Z,99874.50
2022-10-06T07:39:57.065Z,99887.72
2022-10-06T07:43:00.549Z,99876.41
2022-10-06T07:46:03.271Z,99883.78
2022-10-06T07:49:08.479Z,99884.06
2022-10-06T07:52:11.421Z,99886.72
2022-10-06T07:55:17.468Z,99886.94
2022-10-06T07:58:22.595Z,99887.75
2022-10-06T08:01:26.868Z,99892.03
2022-10-06T08:04:30.997Z,99893.16
2022-10-06T08:07:33.807Z,99889.03
2022-10-06T08:10:36.680Z,99897.19
2022-10-06T08:13:42.235Z,99908.16
2022-10-06T08:16:44.860Z,99905.75
2022-10-06T08:19:48.911Z,99915.78
2022-10-06T08:22:51.659Z,99909.81
2022-10-06T08:25:56.377Z,99911.59
2022-10-06T08:29:00.360Z,99915.19
2022-10-06T08:32:04.255Z,99922.75
2022-10-06T08:35:08.850Z,99935.63
2022-10-06T08:38:11.461Z,99939.34
2022-10-06T08:41:22.782Z,99933.19
2022-10-06T08:44:30.754Z,99945.69
2022-10-06T08:47:36.277Z,99936.41
2022-10-06T08:50:47.071Z,99935.91
2022-10-06T08:53:59.478Z,99938.41
2022-10-06T08:57:08.656Z,99947.63
2022-10-06T09:00:13.638Z,99956.19
2022-10-06T09:03:23.995Z,99961.22
2022-10-06T09:06:45.201Z,99959.06
2022-10-06T09:09:57.131Z,99962.03
2022-10-06T09:13:04.809Z,99955.47
2022-10-06T09:16:09.746Z,99966.78
2022-10-06T09:19:17.452Z,99960.09
2022-10-06T09:22:23.130Z,99971.09
2022-10-06T09:25:28.766Z,99965.84
2022-10-06T09:28:34.359Z,99963.94
2022-10-06T09:31:38.946Z,99964.03
2022-10-06T09:34:45.644Z,99964.94
2022-10-06T09:37:56.925Z,99973.75
2022-10-06T09:41:00.047Z,99977.91
2022-10-06T09:44:04.852Z,99971.97
2022-10-06T09:47:24.320Z,99982.75
2022-10-06T09:50:28.362Z,99990.03
2022-10-06T09:53:36.839Z,99988.84
2022-10-06T09:56:41.881Z,99989.97
2022-10-06T09:59:45.959Z,99990.31
2022-10-06T10:02:49.068Z,99989.53
2022-10-06T10:05:55.008Z,99993.44
2022-10-06T10:09:23.015Z,99992.53
2022-10-06T10:12:28.605Z,100002.88
2022-10-06T10:15:33.852Z,99988.56
2022-10-06T10:18:36.637Z,99986.72
2022-10-06T10:21:39.502Z,99987.59
2022-10-06T10:24:49.691Z,99989.88
2022-10-06T10:27:58.886Z,99987.59
2022-10-06T10:31:06.211Z,99993.69
2022-10-06T10:34:25.149Z,99986.28
2022-10-06T10:37:35.162Z,99991.47
2022-10-06T10:40:43.008Z,99984.66
2022-10-06T10:43:49.840Z,99986.59
2022-10-06T10:46:53.839Z,99986.53
2022-10-06T10:50:01.772Z,99976.84
2022-10-06T10:53:10.455Z,99984.13
2022-10-06T10:56:16.139Z,99975.13
2022-10-06T10:59:22.482Z,99970.94
2022-10-06T11:02:25.334Z,99964.63
2022-10-06T11:05:41.045Z,99971.34
2022-10-06T11:08:49.565Z,99966.19
2022-10-06T11:12:04.606Z,99967.59
2022-10-06T11:15:13.754Z,99969.88
2022-10-06T11:18:26.264Z,99971.72
2022-10-06T11:21:32.790Z,99975.41
2022-10-06T11:24:41.565Z,99974.59
2022-10-06T11:27:52.836Z,99973.34
2022-10-06T11:31:01.719Z,99959.28
2022-10-06T11:34:06.454Z,99960.91
2022-10-06T11:37:18.952Z,99960.59
2022-10-06T11:40:36.360Z,99959.28
2022-10-06T11:43:47.628Z,99955.53
2022-10-06T11:46:53.256Z,99962.03
2022-10-06T11:49:56.843Z,99952.81
2022-10-06T11:52:59.505Z,99952.19
2022-10-06T11:56:45.035Z,99947.78
2022-10-06T11:59:49.193Z,99952.41
2022-10-06T12:02:52.254Z,99944.31
2022-10-06T12:05:56.485Z,99945.41
2022-10-06T12:08:59.480Z,99942.44
2022-10-06T12:12:03.845Z,99935.91
2022-10-06T12:18:46.407Z,99944.06
2022-10-06T12:21:56.270Z,99937.03
2022-10-06T12:25:04.017Z,99931.66
2022-10-06T12:28:11.176Z,99926.38
2022-10-06T12:31:30.455Z,99929.25
2022-10-06T12:34:57.452Z,99928.75
2022-10-06T12:38:04.833Z,99936.09
2022-10-06T12:41:11.321Z,99934.06
2022-10-06T12:44:24.018Z,99931.00
2022-10-06T12:47:33.866Z,99929.34
2022-10-06T12:50:38.049Z,99925.19
2022-10-06T12:53:46.685Z,99931.25
2022-10-06T12:56:58.908Z,99939.91
2022-10-06T13:00:01.679Z,99924.03
2022-10-06T13:03:08.820Z,99910.75
2022-10-06T13:06:11.907Z,99916.63
2022-10-06T13:09:16.751Z,99914.25
2022-10-06T13:12:28.323Z,99914.81
2022-10-06T13:15:34.682Z,99914.97
2022-10-06T13:18:38.922Z,99915.06
2022-10-06T13:21:44.168Z,99915.59
2022-10-06T13:24:55.784Z,99913.69
2022-10-06T13:28:02.149Z,99911.63
2022-10-06T13:31:17.225Z,99903.72
2022-10-06T13:34:26.996Z,99914.78
2022-10-06T13:37:30.072Z,99908.19
2022-10-06T13:40:44.947Z,99910.16
2022-10-06T13:43:55.820Z,99903.47
2022-10-06T13:47:03.180Z,99906.59
2022-10-06T13:50:10.125Z,99903.84
2022-10-06T13:53:25.700Z,99910.09
2022-10-06T13:56:34.686Z,99906.13
2022-10-06T13:59:38.421Z,99904.97
2022-10-06T14:02:41.833Z,99899.22
2022-10-06T14:05:47.520Z,99900.28
2022-10-06T14:08:52.499Z,99905.50
2022-10-06T14:12:03.554Z,99898.41
2022-10-06T14:15:18.023Z,99900.09
2022-10-06T14:18:23.453Z,99896.88
2022-10-06T14:21:34.801Z,99894.41
2022-10-06T14:24:37.664Z,99893.34
2022-10-06T14:27:43.134Z,99882.72
2022-10-06T14:30:47.332Z,99879.34
2022-10-06T14:33:52.064Z,99883.72
2022-10-06T14:36:57.235Z,99885.50
2022-10-06T14:40:12.504Z,99884.63
2022-10-06T14:43:15.340Z,99879.66
2022-10-06T14:46:17.922Z,99884.59
2022-10-06T14:49:21.522Z,99878.81
2022-10-06T14:52:25.703Z,99878.56
2022-10-06T14:55:30.509Z,99877.09
2022-10-06T14:58:33.849Z,99868.88
2022-10-06T15:01:38.500Z,99865.00
2022-10-06T15:04:41.592Z,99868.72
2022-10-06T15:08:03.215Z,99867.91
2022-10-06T15:11:06.126Z,99867.16
2022-10-06T15:14:09.879Z,99864.59
2022-10-06T15:17:13.224Z,99860.25
2022-10-06T15:20:17.253Z,99858.06
2022-10-06T15:23:21.443Z,99861.41
2022-10-06T15:26:42.581Z,99853.84
2022-10-06T15:29:45.442Z,99845.22
2022-10-06T15:32:49.369Z,99845.47
2022-10-06T15:36:15.372Z,99850.50
2022-10-06T15:39:21.007Z,99843.56
2022-10-06T15:42:25.194Z,99847.31
2022-10-06T15:45:28.349Z,99845.19
2022-10-06T15:48:31.162Z,99838.78
2022-10-06T15:51:37.190Z,99852.38
2022-10-06T15:54:41.841Z,99849.31
2022-10-06T15:57:44.555Z,99844.41
2022-10-06T16:00:47.295Z,99841.94
2022-10-06T16:03:50.875Z,99834.25
2022-10-06T16:07:00.129Z,99838.91
2022-10-06T16:10:04.498Z,99833.81
2022-10-06T16:13:07.419Z,99841.97
2022-10-06T16:16:10.168Z,99835.16
2022-10-06T16:19:13.310Z,99832.38
2022-10-06T16:22:18.039Z,99837.41
2022-10-06T16:25:22.123Z,99840.91
2022-10-06T16:28:25.122Z,99844.81
2022-10-06T16:31:27.982Z,99844.97
2022-10-06T16:34:31.452Z,99847.47
2022-10-06T16:37:34.286Z,99848.75
2022-10-06T16:41:04.641Z,99845.53
2022-10-06T16:44:07.521Z,99840.00
2022-10-06T16:47:10.350Z,99841.84
2022-10-06T16:50:13.112Z,99849.25
2022-10-06T16:53:17.332Z,99849.75
2022-10-06T16:56:23.498Z,99851.81
2022-10-06T16:59:30.361Z,99847.31
2022-10-06T17:02:33.973Z,99848.53
2022-10-06T17:05:39.560Z,99847.28
2022-10-06T17:08:42.985Z,99848.91
2022-10-06T17:11:49.915Z,99858.34
2022-10-06T17:14:55.189Z,99858.34
2022-10-06T17:17:58.067Z,99858.34
2022-10-06T17:21:15.447Z,99858.47
2022-10-06T17:24:27.925Z,99851.47
2022-10-06T17:27:36.076Z,99865.28
2022-10-06T17:30:52.626Z,99863.84
2022-10-06T17:33:55.771Z,99861.28
2022-10-06T17:36:59.305Z,99863.41
2022-10-06T17:40:01.990Z,99865.19
2022-10-06T17:43:06.057Z,99859.25
2022-10-06T17:46:13.313Z,99859.00
2022-10-06T17:49:20.025Z,99871.06
2022-10-06T17:52:24.393Z,99865.56
2022-10-06T17:55:28.031Z,99877.91
2022-10-06T17:58:32.125Z,99867.31
2022-10-06T18:01:36.156Z,99866.88
2022-10-06T18:04:39.256Z,99861.34
2022-10-06T18:07:45.653Z,99867.16
2022-10-06T18:11:06.122Z,99872.69
2022-10-06T18:14:12.354Z,99862.97
2022-10-06T18:17:15.301Z,99854.75
2022-10-06T18:20:21.510Z,99861.59
2022-10-06T18:23:24.523Z,99861.31
2022-10-06T18:26:27.254Z,99863.81
2022-10-06T18:29:35.403Z,99858.63
2022-10-06T18:34:58.820Z,99861.56
2022-10-06T18:36:17.876Z,99862.88
2022-10-06T18:39:20.672Z,99850.88
2022-10-06T18:42:24.113Z,99868.13
2022-10-06T18:45:45.823Z,99862.78
2022-10-06T18:48:58.642Z,99864.22
2022-10-06T18:52:01.621Z,99857.75
2022-10-06T18:55:04.612Z,99852.75
2022-10-06T18:58:07.297Z,99856.94
2022-10-06T19:01:15.238Z,99849.00
2022-10-06T19:04:19.253Z,99857.56
2022-10-06T19:07:22.640Z,99858.66
2022-10-06T19:10:29.995Z,99860.75
2022-10-06T19:13:32.597Z,99857.19
2022-10-06T19:16:36.877Z,99854.56
2022-10-06T19:19:50.344Z,99860.22
2022-10-06T19:22:52.936Z,99866.72
2022-10-06T19:25:59.774Z,99859.28
2022-10-06T19:29:08.126Z,99852.97
2022-10-06T19:32:13.684Z,99855.19
2022-10-06T19:35:16.588Z,99868.47
2022-10-06T19:38:19.398Z,99859.22
2022-10-06T19:41:43.188Z,99869.75
2022-10-06T19:44:45.851Z,99863.38
2022-10-06T19:47:53.235Z,99871.34
2022-10-06T19:50:55.926Z,99872.84
2022-10-06T19:54:00.409Z,99877.50
2022-10-06T19:57:05.683Z,99873.75
2022-10-06T20:00:10.231Z,99872.44
2022-10-06T20:03:14.218Z,99860.97
2022-10-06T20:06:17.011Z,99864.16
2022-10-06T20:09:21.530Z,99856.28
2022-10-06T20:12:25.510Z,99855.59
2022-10-06T20:15:29.401Z,99852.88
2022-10-06T20:18:38.280Z,99856.09
2022-10-06T20:21:41.430Z,99863.38
2022-10-06T20:24:47.690Z,99862.56
2022-10-06T20:27:51.244Z,99864.50
2022-10-06T20:30:53.799Z,99869.72
2022-10-06T20:34:00.026Z,99863.63
2022-10-06T20:37:06.365Z,99865.44
2022-10-06T20:40:28.111Z,99866.03
2022-10-06T20:43:35.617Z,99864.78
2022-10-06T20:46:39.811Z,99863.25
2022-10-06T20:49:43.905Z,99855.19
2022-10-06T20:52:47.092Z,99856.47
2022-10-06T20:55:52.484Z,99860.97
2022-10-06T20:58:55.320Z,99852.75
2022-10-06T21:01:59.437Z,99850.97
2022-10-06T21:05:07.333Z,99860.34
2022-10-06T21:08:09.994Z,99852.56
2022-10-06T21:11:13.856Z,99856.28
2022-10-06T21:14:17.631Z,99848.00
2022-10-06T21:17:20.339Z,99854.78
2022-10-06T21:20:27.509Z,99855.38
2022-10-06T21:23:30.497Z,99852.16
2022-10-06T21:26:36.155Z,99846.34
2022-10-06T21:29:39.105Z,99845.84
2022-10-06T21:32:42.547Z,99840.34
2022-10-06T21:35:46.709Z,99841.97
2022-10-06T21:38:51.121Z,99836.28
2022-10-06T21:41:53.923Z,99832.59
2022-10-06T21:44:56.656Z,99838.34
2022-10-06T21:47:59.542Z,99827.47
2022-10-06T21:51:03.686Z,99827.31
2022-10-06T21:54:10.554Z,99813.06
2022-10-06T21:57:15.687Z,99816.31
2022-10-06T22:00:19.706Z,99808.22
2022-10-06T22:03:22.413Z,99809.44
2022-10-06T22:06:26.957Z,99812.13
2022-10-06T22:09:29.782Z,99802.91
2022-10-06T22:12:32.505Z,99812.25
2022-10-06T22:15:36.950Z,99800.63
2022-10-06T22:18:41.704Z,99790.44
2022-10-06T22:21:47.003Z,99800.28
2022-10-06T22:24:49.783Z,99796.75
2022-10-06T22:27:52.676Z,99794.72
2022-10-06T22:31:03.385Z,99804.97
2022-10-06T22:34:06.855Z,99809.09
2022-10-06T22:37:11.122Z,99804.53
2022-10-06T22:40:13.854Z,99793.63
2022-10-06T22:43:16.650Z,99797.44
2022-10-06T22:46:19.420Z,99796.13
2022-10-06T22:49:22.351Z,99795.69
2022-10-06T22:52:26.429Z,99783.28
2022-10-06T22:55:29.259Z,99779.72
2022-10-06T22:58:32.112Z,99777.28
2022-10-06T23:01:34.907Z,99770.06
2022-10-06T23:04:37.678Z,99760.50
2022-10-06T23:07:42.091Z,99765.81
2022-10-06T23:10:45.106Z,99765.03
2022-10-06T23:13:48.569Z,99752.22
2022-10-06T23:16:51.400Z,99751.22
2022-10-06T23:19:54.189Z,99744.13
2022-10-06T23:22:58.321Z,99740.88
2022-10-06T23:26:05.697Z,99733.16
2022-10-06T23:29:08.554Z,99738.19
2022-10-06T23:32:11.320Z,99726.16
2022-10-06T23:35:14.092Z,99733.13
2022-10-06T23:38:18.277Z,99731.34
2022-10-06T23:41:21.438Z,99738.34
2022-10-06T23:44:24.351Z,99731.59
2022-10-06T23:47:27.112Z,99736.94
2022-10-06T23:50:29.829Z,99731.81
2022-10-06T23:53:34.539Z,99721.63
2022-10-06T23:56:37.408Z,99720.00
2022-10-06T23:59:40.275Z,99729.06
